sensor_id;sensor_type;location;lat;lon;timestamp;P1;durP1;ratioP1;P2;durP2;ratioP2
5929;SDS011;2990;48.746;9.236;2023-11-19T00:01:08;0.55;;;0.55;;
5929;SDS011;2990;48.746;9.236;2023-11-19T00:03:33;0.50;;;0.50;;
5929;SDS011;2990;48.746;9.236;2023-11-19T00:06:00;0.40;;;0.40;;
5929;SDS011;2990;48.746;9.236;2023-11-19T00:08:26;0.70;;;0.70;;
5929;SDS011;2990;48.746;9.236;2023-11-19T00:10:52;0.40;;;0.40;;
5929;SDS011;2990;48.746;9.236;2023-11-19T00:13:17;0.60;;;0.60;;
5929;SDS011;2990;48.746;9.236;2023-11-19T00:15:43;0.85;;;0.85;;
5929;SDS011;2990;48.746;9.236;2023-11-19T00:18:10;0.60;;;0.60;;
5929;SDS011;2990;48.746;9.236;2023-11-19T00:20:35;0.52;;;0.52;;
5929;SDS011;2990;48.746;9.236;2023-11-19T00:23:01;0.57;;;0.57;;
5929;SDS011;2990;48.746;9.236;2023-11-19T00:25:27;0.50;;;0.50;;
5929;SDS011;2990;48.746;9.236;2023-11-19T00:27:53;0.50;;;0.50;;
5929;SDS011;2990;48.746;9.236;2023-11-19T00:30:19;0.60;;;0.60;;
5929;SDS011;2990;48.746;9.236;2023-11-19T00:32:44;0.60;;;0.60;;
5929;SDS011;2990;48.746;9.236;2023-11-19T00:35:10;2.10;;;0.57;;
5929;SDS011;2990;48.746;9.236;2023-11-19T00:37:37;0.50;;;0.50;;
5929;SDS011;2990;48.746;9.236;2023-11-19T00:40:02;0.50;;;0.50;;
5929;SDS011;2990;48.746;9.236;2023-11-19T00:42:30;0.52;;;0.50;;
5929;SDS011;2990;48.746;9.236;2023-11-19T00:44:56;0.63;;;0.63;;
5929;SDS011;2990;48.746;9.236;2023-11-19T00:47:22;0.60;;;0.40;;
5929;SDS011;2990;48.746;9.236;2023-11-19T00:49:48;0.50;;;0.50;;
5929;SDS011;2990;48.746;9.236;2023-11-19T00:52:14;0.70;;;0.70;;
5929;SDS011;2990;48.746;9.236;2023-11-19T00:54:40;2.15;;;0.60;;
5929;SDS011;2990;48.746;9.236;2023-11-19T00:57:06;0.40;;;0.40;;
5929;SDS011;2990;48.746;9.236;2023-11-19T00:59:31;0.70;;;0.70;;
5929;SDS011;2990;48.746;9.236;2023-11-19T01:01:57;0.60;;;0.60;;
5929;SDS011;2990;48.746;9.236;2023-11-19T01:04:24;0.60;;;0.60;;
5929;SDS011;2990;48.746;9.236;2023-11-19T01:06:49;1.20;;;0.40;;
5929;SDS011;2990;48.746;9.236;2023-11-19T01:09:15;0.50;;;0.50;;
5929;SDS011;2990;48.746;9.236;2023-11-19T01:11:40;0.60;;;0.60;;
5929;SDS011;2990;48.746;9.236;2023-11-19T01:14:06;0.57;;;0.57;;
5929;SDS011;2990;48.746;9.236;2023-11-19T01:16:32;0.35;;;0.35;;
5929;SDS011;2990;48.746;9.236;2023-11-19T01:18:57;0.50;;;0.50;;
5929;SDS011;2990;48.746;9.236;2023-11-19T01:21:23;0.47;;;0.47;;
5929;SDS011;2990;48.746;9.236;2023-11-19T01:23:48;0.30;;;0.30;;
5929;SDS011;2990;48.746;9.236;2023-11-19T01:26:14;0.40;;;0.40;;
5929;SDS011;2990;48.746;9.236;2023-11-19T01:28:40;0.50;;;0.50;;
5929;SDS011;2990;48.746;9.236;2023-11-19T01:31:08;0.38;;;0.38;;
5929;SDS011;2990;48.746;9.236;2023-11-19T01:33:33;0.40;;;0.40;;
5929;SDS011;2990;48.746;9.236;2023-11-19T01:36:01;0.50;;;0.50;;
5929;SDS011;2990;48.746;9.236;2023-11-19T01:38:26;1.85;;;0.28;;
5929;SDS011;2990;48.746;9.236;2023-11-19T01:40:55;0.38;;;0.38;;
5929;SDS011;2990;48.746;9.236;2023-11-19T01:43:33;0.40;;;0.40;;
5929;SDS011;2990;48.746;9.236;2023-11-19T01:46:04;0.30;;;0.30;;
5929;SDS011;2990;48.746;9.236;2023-11-19T01:48:31;0.40;;;0.40;;
5929;SDS011;2990;48.746;9.236;2023-11-19T01:50:58;0.30;;;0.30;;
5929;SDS011;2990;48.746;9.236;2023-11-19T01:53:25;1.45;;;0.40;;
5929;SDS011;2990;48.746;9.236;2023-11-19T01:55:51;0.30;;;0.30;;
5929;SDS011;2990;48.746;9.236;2023-11-19T01:58:17;0.20;;;0.20;;
5929;SDS011;2990;48.746;9.236;2023-11-19T02:00:44;0.38;;;0.38;;
5929;SDS011;2990;48.746;9.236;2023-11-19T02:03:10;0.30;;;0.30;;
5929;SDS011;2990;48.746;9.236;2023-11-19T02:05:36;0.25;;;0.25;;
5929;SDS011;2990;48.746;9.236;2023-11-19T02:08:03;0.20;;;0.20;;
5929;SDS011;2990;48.746;9.236;2023-11-19T02:10:29;0.30;;;0.30;;
5929;SDS011;2990;48.746;9.236;2023-11-19T02:12:56;0.22;;;0.22;;
5929;SDS011;2990;48.746;9.236;2023-11-19T02:15:22;0.10;;;0.10;;
5929;SDS011;2990;48.746;9.236;2023-11-19T02:17:49;0.20;;;0.20;;
5929;SDS011;2990;48.746;9.236;2023-11-19T02:20:15;0.20;;;0.20;;
5929;SDS011;2990;48.746;9.236;2023-11-19T02:22:41;0.20;;;0.20;;
5929;SDS011;2990;48.746;9.236;2023-11-19T02:25:08;0.10;;;0.10;;
5929;SDS011;2990;48.746;9.236;2023-11-19T02:30:21;0.20;;;0.20;;
5929;SDS011;2990;48.746;9.236;2023-11-19T02:32:51;0.10;;;0.10;;
5929;SDS011;2990;48.746;9.236;2023-11-19T02:35:25;0.10;;;0.10;;
5929;SDS011;2990;48.746;9.236;2023-11-19T02:37:51;0.10;;;0.10;;
5929;SDS011;2990;48.746;9.236;2023-11-19T02:40:17;0.10;;;0.10;;
5929;SDS011;2990;48.746;9.236;2023-11-19T02:42:43;0.15;;;0.15;;
5929;SDS011;2990;48.746;9.236;2023-11-19T02:45:09;0.10;;;0.10;;
5929;SDS011;2990;48.746;9.236;2023-11-19T02:47:42;0.10;;;0.10;;
5929;SDS011;2990;48.746;9.236;2023-11-19T02:50:11;0.10;;;0.10;;
5929;SDS011;2990;48.746;9.236;2023-11-19T02:52:48;0.10;;;0.10;;
5929;SDS011;2990;48.746;9.236;2023-11-19T02:55:15;0.17;;;0.17;;
5929;SDS011;2990;48.746;9.236;2023-11-19T02:57:42;0.00;;;0.00;;
5929;SDS011;2990;48.746;9.236;2023-11-19T03:00:16;0.00;;;0.00;;
5929;SDS011;2990;48.746;9.236;2023-11-19T03:02:43;0.20;;;0.20;;
5929;SDS011;2990;48.746;9.236;2023-11-19T03:05:14;0.00;;;0.00;;
5929;SDS011;2990;48.746;9.236;2023-11-19T03:07:41;0.00;;;0.00;;
5929;SDS011;2990;48.746;9.236;2023-11-19T03:10:08;0.00;;;0.00;;
5929;SDS011;2990;48.746;9.236;2023-11-19T03:12:38;0.00;;;0.00;;
5929;SDS011;2990;48.746;9.236;2023-11-19T03:15:07;0.00;;;0.00;;
5929;SDS011;2990;48.746;9.236;2023-11-19T03:17:38;0.00;;;0.00;;
5929;SDS011;2990;48.746;9.236;2023-11-19T03:20:07;0.10;;;0.10;;
5929;SDS011;2990;48.746;9.236;2023-11-19T03:22:41;0.10;;;0.10;;
5929;SDS011;2990;48.746;9.236;2023-11-19T03:25:08;0.10;;;0.10;;
5929;SDS011;2990;48.746;9.236;2023-11-19T03:27:39;0.10;;;0.10;;
5929;SDS011;2990;48.746;9.236;2023-11-19T03:30:07;0.05;;;0.05;;
5929;SDS011;2990;48.746;9.236;2023-11-19T03:32:34;0.00;;;0.00;;
5929;SDS011;2990;48.746;9.236;2023-11-19T03:35:00;0.00;;;0.00;;
5929;SDS011;2990;48.746;9.236;2023-11-19T03:37:32;0.47;;;0.47;;
5929;SDS011;2990;48.746;9.236;2023-11-19T03:39:58;0.00;;;0.00;;
5929;SDS011;2990;48.746;9.236;2023-11-19T03:42:25;0.00;;;0.00;;
5929;SDS011;2990;48.746;9.236;2023-11-19T03:44:52;0.10;;;0.10;;
5929;SDS011;2990;48.746;9.236;2023-11-19T03:47:18;0.00;;;0.00;;
5929;SDS011;2990;48.746;9.236;2023-11-19T03:49:48;0.00;;;0.00;;
5929;SDS011;2990;48.746;9.236;2023-11-19T03:52:14;0.05;;;0.05;;
5929;SDS011;2990;48.746;9.236;2023-11-19T03:54:39;0.00;;;0.00;;
5929;SDS011;2990;48.746;9.236;2023-11-19T03:57:05;0.00;;;0.00;;
5929;SDS011;2990;48.746;9.236;2023-11-19T03:59:30;0.00;;;0.00;;
5929;SDS011;2990;48.746;9.236;2023-11-19T04:01:56;0.00;;;0.00;;
5929;SDS011;2990;48.746;9.236;2023-11-19T04:04:22;0.00;;;0.00;;
5929;SDS011;2990;48.746;9.236;2023-11-19T04:06:47;0.10;;;0.10;;
5929;SDS011;2990;48.746;9.236;2023-11-19T04:09:13;0.00;;;0.00;;
5929;SDS011;2990;48.746;9.236;2023-11-19T04:11:39;0.10;;;0.10;;
5929;SDS011;2990;48.746;9.236;2023-11-19T04:14:05;0.10;;;0.10;;
5929;SDS011;2990;48.746;9.236;2023-11-19T04:16:30;0.10;;;0.10;;
5929;SDS011;2990;48.746;9.236;2023-11-19T04:18:56;0.03;;;0.03;;
5929;SDS011;2990;48.746;9.236;2023-11-19T04:21:22;0.10;;;0.10;;
5929;SDS011;2990;48.746;9.236;2023-11-19T04:23:49;0.00;;;0.00;;
5929;SDS011;2990;48.746;9.236;2023-11-19T04:26:14;0.10;;;0.10;;
5929;SDS011;2990;48.746;9.236;2023-11-19T04:28:40;0.00;;;0.00;;
5929;SDS011;2990;48.746;9.236;2023-11-19T04:31:06;0.00;;;0.00;;
5929;SDS011;2990;48.746;9.236;2023-11-19T04:33:32;0.10;;;0.10;;
5929;SDS011;2990;48.746;9.236;2023-11-19T04:35:57;0.08;;;0.08;;
5929;SDS011;2990;48.746;9.236;2023-11-19T04:38:23;0.10;;;0.10;;
5929;SDS011;2990;48.746;9.236;2023-11-19T04:40:48;0.05;;;0.05;;
5929;SDS011;2990;48.746;9.236;2023-11-19T04:43:14;0.00;;;0.00;;
5929;SDS011;2990;48.746;9.236;2023-11-19T04:45:40;0.00;;;0.00;;
5929;SDS011;2990;48.746;9.236;2023-11-19T04:48:06;0.00;;;0.00;;
5929;SDS011;2990;48.746;9.236;2023-11-19T04:50:31;0.00;;;0.00;;
5929;SDS011;2990;48.746;9.236;2023-11-19T04:52:57;0.00;;;0.00;;
5929;SDS011;2990;48.746;9.236;2023-11-19T04:55:22;0.00;;;0.00;;
5929;SDS011;2990;48.746;9.236;2023-11-19T04:57:48;0.10;;;0.10;;
5929;SDS011;2990;48.746;9.236;2023-11-19T05:00:13;0.10;;;0.10;;
5929;SDS011;2990;48.746;9.236;2023-11-19T05:02:39;0.10;;;0.10;;
5929;SDS011;2990;48.746;9.236;2023-11-19T05:05:05;0.03;;;0.03;;
5929;SDS011;2990;48.746;9.236;2023-11-19T05:07:31;0.00;;;0.00;;
5929;SDS011;2990;48.746;9.236;2023-11-19T05:09:56;0.10;;;0.10;;
5929;SDS011;2990;48.746;9.236;2023-11-19T05:12:22;0.00;;;0.00;;
5929;SDS011;2990;48.746;9.236;2023-11-19T05:14:48;0.08;;;0.08;;
5929;SDS011;2990;48.746;9.236;2023-11-19T05:17:16;0.10;;;0.10;;
5929;SDS011;2990;48.746;9.236;2023-11-19T05:19:45;0.03;;;0.03;;
5929;SDS011;2990;48.746;9.236;2023-11-19T05:22:11;0.00;;;0.00;;
5929;SDS011;2990;48.746;9.236;2023-11-19T05:24:37;0.00;;;0.00;;
5929;SDS011;2990;48.746;9.236;2023-11-19T05:27:04;0.10;;;0.10;;
5929;SDS011;2990;48.746;9.236;2023-11-19T05:29:30;0.08;;;0.08;;
5929;SDS011;2990;48.746;9.236;2023-11-19T05:31:55;0.10;;;0.10;;
5929;SDS011;2990;48.746;9.236;2023-11-19T05:34:21;0.10;;;0.10;;
5929;SDS011;2990;48.746;9.236;2023-11-19T05:36:46;0.00;;;0.00;;
5929;SDS011;2990;48.746;9.236;2023-11-19T05:39:12;0.10;;;0.10;;
5929;SDS011;2990;48.746;9.236;2023-11-19T05:41:38;0.00;;;0.00;;
5929;SDS011;2990;48.746;9.236;2023-11-19T05:44:04;0.05;;;0.05;;
5929;SDS011;2990;48.746;9.236;2023-11-19T05:46:29;0.00;;;0.00;;
5929;SDS011;2990;48.746;9.236;2023-11-19T05:48:55;0.10;;;0.10;;
5929;SDS011;2990;48.746;9.236;2023-11-19T05:51:20;0.00;;;0.00;;
5929;SDS011;2990;48.746;9.236;2023-11-19T05:53:46;0.10;;;0.10;;
5929;SDS011;2990;48.746;9.236;2023-11-19T05:56:11;0.10;;;0.10;;
5929;SDS011;2990;48.746;9.236;2023-11-19T05:58:37;0.00;;;0.00;;
5929;SDS011;2990;48.746;9.236;2023-11-19T06:01:04;0.00;;;0.00;;
5929;SDS011;2990;48.746;9.236;2023-11-19T06:03:32;0.10;;;0.10;;
5929;SDS011;2990;48.746;9.236;2023-11-19T06:05:58;0.10;;;0.10;;
5929;SDS011;2990;48.746;9.236;2023-11-19T06:08:23;0.10;;;0.10;;
5929;SDS011;2990;48.746;9.236;2023-11-19T06:10:49;0.00;;;0.00;;
5929;SDS011;2990;48.746;9.236;2023-11-19T06:13:16;0.25;;;0.15;;
5929;SDS011;2990;48.746;9.236;2023-11-19T06:15:42;0.10;;;0.10;;
5929;SDS011;2990;48.746;9.236;2023-11-19T06:18:08;0.00;;;0.00;;
5929;SDS011;2990;48.746;9.236;2023-11-19T06:20:33;0.10;;;0.10;;
5929;SDS011;2990;48.746;9.236;2023-11-19T06:22:59;0.05;;;0.05;;
5929;SDS011;2990;48.746;9.236;2023-11-19T06:25:25;0.10;;;0.10;;
5929;SDS011;2990;48.746;9.236;2023-11-19T06:27:51;0.25;;;0.10;;
5929;SDS011;2990;48.746;9.236;2023-11-19T06:30:17;0.10;;;0.10;;
5929;SDS011;2990;48.746;9.236;2023-11-19T06:32:43;0.10;;;0.10;;
5929;SDS011;2990;48.746;9.236;2023-11-19T06:35:09;0.10;;;0.10;;
5929;SDS011;2990;48.746;9.236;2023-11-19T06:37:35;0.10;;;0.10;;
5929;SDS011;2990;48.746;9.236;2023-11-19T06:40:03;0.10;;;0.10;;
5929;SDS011;2990;48.746;9.236;2023-11-19T06:42:30;0.10;;;0.10;;
5929;SDS011;2990;48.746;9.236;2023-11-19T06:44:55;0.00;;;0.00;;
5929;SDS011;2990;48.746;9.236;2023-11-19T06:47:22;0.00;;;0.00;;
5929;SDS011;2990;48.746;9.236;2023-11-19T06:49:50;0.10;;;0.10;;
5929;SDS011;2990;48.746;9.236;2023-11-19T06:52:16;0.17;;;0.10;;
5929;SDS011;2990;48.746;9.236;2023-11-19T06:54:41;0.10;;;0.10;;
5929;SDS011;2990;48.746;9.236;2023-11-19T06:57:07;0.10;;;0.10;;
5929;SDS011;2990;48.746;9.236;2023-11-19T06:59:34;0.10;;;0.10;;
5929;SDS011;2990;48.746;9.236;2023-11-19T07:01:59;0.10;;;0.10;;
5929;SDS011;2990;48.746;9.236;2023-11-19T07:04:25;0.47;;;0.30;;
5929;SDS011;2990;48.746;9.236;2023-11-19T07:06:51;0.10;;;0.10;;
5929;SDS011;2990;48.746;9.236;2023-11-19T07:09:18;0.10;;;0.10;;
5929;SDS011;2990;48.746;9.236;2023-11-19T07:11:44;0.10;;;0.10;;
5929;SDS011;2990;48.746;9.236;2023-11-19T07:14:10;0.20;;;0.10;;
5929;SDS011;2990;48.746;9.236;2023-11-19T07:16:36;0.10;;;0.10;;
5929;SDS011;2990;48.746;9.236;2023-11-19T07:19:03;0.10;;;0.10;;
5929;SDS011;2990;48.746;9.236;2023-11-19T07:21:32;0.10;;;0.10;;
5929;SDS011;2990;48.746;9.236;2023-11-19T07:23:58;0.10;;;0.10;;
5929;SDS011;2990;48.746;9.236;2023-11-19T07:26:24;0.10;;;0.10;;
5929;SDS011;2990;48.746;9.236;2023-11-19T07:28:50;0.10;;;0.10;;
5929;SDS011;2990;48.746;9.236;2023-11-19T07:31:15;0.10;;;0.10;;
5929;SDS011;2990;48.746;9.236;2023-11-19T07:33:44;0.10;;;0.10;;
5929;SDS011;2990;48.746;9.236;2023-11-19T07:36:11;0.10;;;0.10;;
5929;SDS011;2990;48.746;9.236;2023-11-19T07:38:37;0.10;;;0.10;;
5929;SDS011;2990;48.746;9.236;2023-11-19T07:41:03;0.10;;;0.10;;
5929;SDS011;2990;48.746;9.236;2023-11-19T07:43:30;0.20;;;0.17;;
5929;SDS011;2990;48.746;9.236;2023-11-19T07:45:56;0.10;;;0.10;;
5929;SDS011;2990;48.746;9.236;2023-11-19T07:48:24;0.17;;;0.17;;
5929;SDS011;2990;48.746;9.236;2023-11-19T07:50:50;1.50;;;0.20;;
5929;SDS011;2990;48.746;9.236;2023-11-19T07:53:16;0.10;;;0.10;;
5929;SDS011;2990;48.746;9.236;2023-11-19T07:55:41;0.10;;;0.10;;
5929;SDS011;2990;48.746;9.236;2023-11-19T07:58:07;0.03;;;0.03;;
5929;SDS011;2990;48.746;9.236;2023-11-19T08:00:32;0.10;;;0.10;;
5929;SDS011;2990;48.746;9.236;2023-11-19T08:02:58;0.10;;;0.10;;
5929;SDS011;2990;48.746;9.236;2023-11-19T08:05:23;0.10;;;0.10;;
5929;SDS011;2990;48.746;9.236;2023-11-19T08:07:52;0.10;;;0.10;;
5929;SDS011;2990;48.746;9.236;2023-11-19T08:10:18;0.10;;;0.10;;
5929;SDS011;2990;48.746;9.236;2023-11-19T08:12:44;1.92;;;0.20;;
5929;SDS011;2990;48.746;9.236;2023-11-19T08:15:09;0.10;;;0.10;;
5929;SDS011;2990;48.746;9.236;2023-11-19T08:17:35;0.10;;;0.10;;
5929;SDS011;2990;48.746;9.236;2023-11-19T08:20:01;0.10;;;0.10;;
5929;SDS011;2990;48.746;9.236;2023-11-19T08:22:27;0.10;;;0.10;;
5929;SDS011;2990;48.746;9.236;2023-11-19T08:24:53;0.10;;;0.10;;
5929;SDS011;2990;48.746;9.236;2023-11-19T08:27:18;0.10;;;0.10;;
5929;SDS011;2990;48.746;9.236;2023-11-19T08:29:51;0.00;;;0.00;;
5929;SDS011;2990;48.746;9.236;2023-11-19T08:32:23;0.10;;;0.10;;
5929;SDS011;2990;48.746;9.236;2023-11-19T08:34:49;0.13;;;0.13;;
5929;SDS011;2990;48.746;9.236;2023-11-19T08:37:15;0.10;;;0.10;;
5929;SDS011;2990;48.746;9.236;2023-11-19T08:39:43;0.10;;;0.10;;
5929;SDS011;2990;48.746;9.236;2023-11-19T08:42:08;0.10;;;0.10;;
5929;SDS011;2990;48.746;9.236;2023-11-19T08:44:34;0.20;;;0.20;;
5929;SDS011;2990;48.746;9.236;2023-11-19T08:46:59;0.10;;;0.10;;
5929;SDS011;2990;48.746;9.236;2023-11-19T08:49:25;0.08;;;0.08;;
5929;SDS011;2990;48.746;9.236;2023-11-19T08:51:50;0.20;;;0.20;;
5929;SDS011;2990;48.746;9.236;2023-11-19T08:54:16;0.15;;;0.15;;
5929;SDS011;2990;48.746;9.236;2023-11-19T08:56:42;1.45;;;0.15;;
5929;SDS011;2990;48.746;9.236;2023-11-19T08:59:07;0.47;;;0.20;;
5929;SDS011;2990;48.746;9.236;2023-11-19T09:01:33;0.25;;;0.10;;
5929;SDS011;2990;48.746;9.236;2023-11-19T09:03:59;0.73;;;0.20;;
5929;SDS011;2990;48.746;9.236;2023-11-19T09:06:24;0.20;;;0.20;;
5929;SDS011;2990;48.746;9.236;2023-11-19T09:08:50;0.20;;;0.20;;
5929;SDS011;2990;48.746;9.236;2023-11-19T09:11:16;0.20;;;0.20;;
5929;SDS011;2990;48.746;9.236;2023-11-19T09:13:42;0.10;;;0.10;;
5929;SDS011;2990;48.746;9.236;2023-11-19T09:16:07;0.10;;;0.10;;
5929;SDS011;2990;48.746;9.236;2023-11-19T09:18:33;0.10;;;0.10;;
5929;SDS011;2990;48.746;9.236;2023-11-19T09:21:00;0.10;;;0.10;;
5929;SDS011;2990;48.746;9.236;2023-11-19T09:23:25;0.20;;;0.20;;
5929;SDS011;2990;48.746;9.236;2023-11-19T09:25:52;0.10;;;0.10;;
5929;SDS011;2990;48.746;9.236;2023-11-19T09:28:18;0.15;;;0.15;;
5929;SDS011;2990;48.746;9.236;2023-11-19T09:30:43;0.10;;;0.10;;
5929;SDS011;2990;48.746;9.236;2023-11-19T09:33:09;0.10;;;0.10;;
5929;SDS011;2990;48.746;9.236;2023-11-19T09:35:35;0.10;;;0.10;;
5929;SDS011;2990;48.746;9.236;2023-11-19T09:38:00;0.10;;;0.10;;
5929;SDS011;2990;48.746;9.236;2023-11-19T09:40:26;0.10;;;0.10;;
5929;SDS011;2990;48.746;9.236;2023-11-19T09:42:53;0.10;;;0.10;;
5929;SDS011;2990;48.746;9.236;2023-11-19T09:45:20;0.43;;;0.20;;
5929;SDS011;2990;48.746;9.236;2023-11-19T09:47:46;0.10;;;0.10;;
5929;SDS011;2990;48.746;9.236;2023-11-19T09:50:16;0.20;;;0.20;;
5929;SDS011;2990;48.746;9.236;2023-11-19T09:52:45;0.30;;;0.20;;
5929;SDS011;2990;48.746;9.236;2023-11-19T09:55:12;0.20;;;0.20;;
5929;SDS011;2990;48.746;9.236;2023-11-19T09:57:40;0.20;;;0.20;;
5929;SDS011;2990;48.746;9.236;2023-11-19T10:00:09;0.20;;;0.20;;
5929;SDS011;2990;48.746;9.236;2023-11-19T10:02:36;0.20;;;0.20;;
5929;SDS011;2990;48.746;9.236;2023-11-19T10:05:04;0.10;;;0.10;;
5929;SDS011;2990;48.746;9.236;2023-11-19T10:07:31;0.20;;;0.20;;
5929;SDS011;2990;48.746;9.236;2023-11-19T10:10:01;0.20;;;0.20;;
5929;SDS011;2990;48.746;9.236;2023-11-19T10:12:29;0.10;;;0.10;;
5929;SDS011;2990;48.746;9.236;2023-11-19T10:14:58;0.10;;;0.10;;
5929;SDS011;2990;48.746;9.236;2023-11-19T10:17:27;0.10;;;0.10;;
5929;SDS011;2990;48.746;9.236;2023-11-19T10:19:54;0.17;;;0.17;;
5929;SDS011;2990;48.746;9.236;2023-11-19T10:22:22;0.10;;;0.10;;
5929;SDS011;2990;48.746;9.236;2023-11-19T10:24:48;0.43;;;0.40;;
5929;SDS011;2990;48.746;9.236;2023-11-19T10:27:13;0.10;;;0.10;;
5929;SDS011;2990;48.746;9.236;2023-11-19T10:29:39;4.28;;;0.13;;
5929;SDS011;2990;48.746;9.236;2023-11-19T10:32:05;0.10;;;0.10;;
5929;SDS011;2990;48.746;9.236;2023-11-19T10:34:31;0.10;;;0.10;;
5929;SDS011;2990;48.746;9.236;2023-11-19T10:36:56;1.55;;;0.10;;
5929;SDS011;2990;48.746;9.236;2023-11-19T10:39:22;0.10;;;0.10;;
5929;SDS011;2990;48.746;9.236;2023-11-19T10:41:49;0.10;;;0.10;;
5929;SDS011;2990;48.746;9.236;2023-11-19T10:44:31;0.17;;;0.17;;
5929;SDS011;2990;48.746;9.236;2023-11-19T10:47:00;0.10;;;0.10;;
5929;SDS011;2990;48.746;9.236;2023-11-19T10:49:26;0.13;;;0.13;;
5929;SDS011;2990;48.746;9.236;2023-11-19T10:51:52;0.10;;;0.10;;
5929;SDS011;2990;48.746;9.236;2023-11-19T10:54:18;0.20;;;0.20;;
5929;SDS011;2990;48.746;9.236;2023-11-19T10:56:44;0.20;;;0.20;;
5929;SDS011;2990;48.746;9.236;2023-11-19T10:59:14;0.10;;;0.10;;
5929;SDS011;2990;48.746;9.236;2023-11-19T11:01:43;0.20;;;0.20;;
5929;SDS011;2990;48.746;9.236;2023-11-19T11:04:19;0.20;;;0.20;;
5929;SDS011;2990;48.746;9.236;2023-11-19T11:06:48;0.10;;;0.10;;
5929;SDS011;2990;48.746;9.236;2023-11-19T11:09:13;0.20;;;0.20;;
5929;SDS011;2990;48.746;9.236;2023-11-19T11:11:40;0.10;;;0.10;;
5929;SDS011;2990;48.746;9.236;2023-11-19T11:14:08;0.10;;;0.10;;
5929;SDS011;2990;48.746;9.236;2023-11-19T11:16:37;0.20;;;0.20;;
5929;SDS011;2990;48.746;9.236;2023-11-19T11:19:04;0.00;;;0.00;;
5929;SDS011;2990;48.746;9.236;2023-11-19T11:21:30;0.10;;;0.10;;
5929;SDS011;2990;48.746;9.236;2023-11-19T11:32:16;0.20;;;0.20;;
5929;SDS011;2990;48.746;9.236;2023-11-19T11:38:14;0.50;;;0.50;;
5929;SDS011;2990;48.746;9.236;2023-11-19T11:40:42;0.17;;;0.17;;
5929;SDS011;2990;48.746;9.236;2023-11-19T11:48:57;0.32;;;0.10;;
5929;SDS011;2990;48.746;9.236;2023-11-19T11:56:58;0.28;;;0.10;;
5929;SDS011;2990;48.746;9.236;2023-11-19T11:59:36;0.10;;;0.10;;
5929;SDS011;2990;48.746;9.236;2023-11-19T12:02:16;0.10;;;0.10;;
5929;SDS011;2990;48.746;9.236;2023-11-19T12:04:50;0.10;;;0.10;;
5929;SDS011;2990;48.746;9.236;2023-11-19T12:07:18;0.10;;;0.10;;
5929;SDS011;2990;48.746;9.236;2023-11-19T12:09:49;0.10;;;0.10;;
5929;SDS011;2990;48.746;9.236;2023-11-19T12:12:32;0.10;;;0.10;;
5929;SDS011;2990;48.746;9.236;2023-11-19T12:20:05;0.10;;;0.10;;
5929;SDS011;2990;48.746;9.236;2023-11-19T12:22:34;0.10;;;0.10;;
5929;SDS011;2990;48.746;9.236;2023-11-19T12:25:02;0.20;;;0.20;;
5929;SDS011;2990;48.746;9.236;2023-11-19T12:27:29;0.10;;;0.10;;
5929;SDS011;2990;48.746;9.236;2023-11-19T12:29:55;0.20;;;0.20;;
5929;SDS011;2990;48.746;9.236;2023-11-19T12:32:22;0.10;;;0.10;;
5929;SDS011;2990;48.746;9.236;2023-11-19T12:34:47;0.52;;;0.52;;
5929;SDS011;2990;48.746;9.236;2023-11-19T12:37:13;1.25;;;0.13;;
5929;SDS011;2990;48.746;9.236;2023-11-19T12:39:39;0.10;;;0.10;;
5929;SDS011;2990;48.746;9.236;2023-11-19T12:42:05;0.10;;;0.10;;
5929;SDS011;2990;48.746;9.236;2023-11-19T12:44:30;0.10;;;0.10;;
5929;SDS011;2990;48.746;9.236;2023-11-19T12:49:29;1.20;;;0.15;;
5929;SDS011;2990;48.746;9.236;2023-11-19T12:51:54;0.10;;;0.10;;
5929;SDS011;2990;48.746;9.236;2023-11-19T12:54:20;0.15;;;0.10;;
5929;SDS011;2990;48.746;9.236;2023-11-19T12:56:56;0.10;;;0.10;;
5929;SDS011;2990;48.746;9.236;2023-11-19T12:59:21;0.10;;;0.10;;
5929;SDS011;2990;48.746;9.236;2023-11-19T13:02:21;0.10;;;0.10;;
5929;SDS011;2990;48.746;9.236;2023-11-19T13:04:39;0.10;;;0.10;;
5929;SDS011;2990;48.746;9.236;2023-11-19T13:07:05;0.10;;;0.10;;
5929;SDS011;2990;48.746;9.236;2023-11-19T13:09:31;0.10;;;0.10;;
5929;SDS011;2990;48.746;9.236;2023-11-19T13:11:57;0.10;;;0.10;;
5929;SDS011;2990;48.746;9.236;2023-11-19T13:14:24;0.10;;;0.10;;
5929;SDS011;2990;48.746;9.236;2023-11-19T13:17:02;0.10;;;0.10;;
5929;SDS011;2990;48.746;9.236;2023-11-19T13:19:27;0.10;;;0.10;;
5929;SDS011;2990;48.746;9.236;2023-11-19T13:21:53;0.03;;;0.03;;
5929;SDS011;2990;48.746;9.236;2023-11-19T13:24:18;0.30;;;0.20;;
5929;SDS011;2990;48.746;9.236;2023-11-19T13:26:44;0.10;;;0.10;;
5929;SDS011;2990;48.746;9.236;2023-11-19T13:29:09;0.20;;;0.20;;
5929;SDS011;2990;48.746;9.236;2023-11-19T13:31:35;0.00;;;0.00;;
5929;SDS011;2990;48.746;9.236;2023-11-19T13:34:01;11.98;;;0.20;;
5929;SDS011;2990;48.746;9.236;2023-11-19T13:36:27;0.45;;;0.45;;
5929;SDS011;2990;48.746;9.236;2023-11-19T13:38:52;0.10;;;0.10;;
5929;SDS011;2990;48.746;9.236;2023-11-19T13:41:23;0.00;;;0.00;;
5929;SDS011;2990;48.746;9.236;2023-11-19T13:43:50;1.15;;;0.20;;
5929;SDS011;2990;48.746;9.236;2023-11-19T13:46:16;0.10;;;0.10;;
5929;SDS011;2990;48.746;9.236;2023-11-19T13:48:41;0.13;;;0.13;;
5929;SDS011;2990;48.746;9.236;2023-11-19T13:51:07;0.10;;;0.10;;
5929;SDS011;2990;48.746;9.236;2023-11-19T13:53:34;0.10;;;0.10;;
5929;SDS011;2990;48.746;9.236;2023-11-19T13:56:00;0.20;;;0.20;;
5929;SDS011;2990;48.746;9.236;2023-11-19T13:58:26;0.00;;;0.00;;
5929;SDS011;2990;48.746;9.236;2023-11-19T14:00:52;0.20;;;0.20;;
5929;SDS011;2990;48.746;9.236;2023-11-19T14:03:17;0.05;;;0.05;;
5929;SDS011;2990;48.746;9.236;2023-11-19T14:05:43;0.10;;;0.10;;
5929;SDS011;2990;48.746;9.236;2023-11-19T14:08:08;0.10;;;0.10;;
5929;SDS011;2990;48.746;9.236;2023-11-19T14:10:37;0.10;;;0.10;;
5929;SDS011;2990;48.746;9.236;2023-11-19T14:13:05;0.10;;;0.10;;
5929;SDS011;2990;48.746;9.236;2023-11-19T14:15:34;0.10;;;0.10;;
5929;SDS011;2990;48.746;9.236;2023-11-19T14:18:00;0.15;;;0.15;;
5929;SDS011;2990;48.746;9.236;2023-11-19T14:20:25;0.38;;;0.20;;
5929;SDS011;2990;48.746;9.236;2023-11-19T14:22:51;0.10;;;0.10;;
5929;SDS011;2990;48.746;9.236;2023-11-19T14:25:17;0.10;;;0.10;;
5929;SDS011;2990;48.746;9.236;2023-11-19T14:27:43;0.20;;;0.20;;
5929;SDS011;2990;48.746;9.236;2023-11-19T14:30:11;0.10;;;0.10;;
5929;SDS011;2990;48.746;9.236;2023-11-19T14:32:41;0.10;;;0.10;;
5929;SDS011;2990;48.746;9.236;2023-11-19T14:35:09;0.10;;;0.10;;
5929;SDS011;2990;48.746;9.236;2023-11-19T14:37:35;0.10;;;0.10;;
5929;SDS011;2990;48.746;9.236;2023-11-19T14:40:01;0.15;;;0.15;;
5929;SDS011;2990;48.746;9.236;2023-11-19T14:42:29;0.10;;;0.10;;
5929;SDS011;2990;48.746;9.236;2023-11-19T14:44:55;0.10;;;0.10;;
5929;SDS011;2990;48.746;9.236;2023-11-19T14:47:21;0.10;;;0.10;;
5929;SDS011;2990;48.746;9.236;2023-11-19T14:49:47;0.10;;;0.10;;
5929;SDS011;2990;48.746;9.236;2023-11-19T14:52:13;0.38;;;0.17;;
5929;SDS011;2990;48.746;9.236;2023-11-19T14:54:39;0.65;;;0.10;;
5929;SDS011;2990;48.746;9.236;2023-11-19T14:57:05;0.10;;;0.10;;
5929;SDS011;2990;48.746;9.236;2023-11-19T14:59:33;0.88;;;0.10;;
5929;SDS011;2990;48.746;9.236;2023-11-19T15:01:58;0.20;;;0.20;;
5929;SDS011;2990;48.746;9.236;2023-11-19T15:04:25;0.10;;;0.10;;
5929;SDS011;2990;48.746;9.236;2023-11-19T15:06:51;0.10;;;0.10;;
5929;SDS011;2990;48.746;9.236;2023-11-19T15:09:17;0.05;;;0.05;;
5929;SDS011;2990;48.746;9.236;2023-11-19T15:11:43;0.68;;;0.10;;
5929;SDS011;2990;48.746;9.236;2023-11-19T15:14:11;0.10;;;0.10;;
5929;SDS011;2990;48.746;9.236;2023-11-19T15:16:41;0.50;;;0.20;;
5929;SDS011;2990;48.746;9.236;2023-11-19T15:19:07;0.20;;;0.20;;
5929;SDS011;2990;48.746;9.236;2023-11-19T15:21:33;1.17;;;0.10;;
5929;SDS011;2990;48.746;9.236;2023-11-19T15:23:59;0.10;;;0.10;;
5929;SDS011;2990;48.746;9.236;2023-11-19T15:26:26;0.10;;;0.10;;
5929;SDS011;2990;48.746;9.236;2023-11-19T15:28:51;1.85;;;0.15;;
5929;SDS011;2990;48.746;9.236;2023-11-19T15:31:22;0.10;;;0.10;;
5929;SDS011;2990;48.746;9.236;2023-11-19T15:33:48;0.32;;;0.32;;
5929;SDS011;2990;48.746;9.236;2023-11-19T15:36:14;0.20;;;0.20;;
5929;SDS011;2990;48.746;9.236;2023-11-19T15:38:40;0.20;;;0.20;;
5929;SDS011;2990;48.746;9.236;2023-11-19T15:41:05;0.15;;;0.15;;
5929;SDS011;2990;48.746;9.236;2023-11-19T15:43:32;0.15;;;0.15;;
5929;SDS011;2990;48.746;9.236;2023-11-19T15:45:58;0.15;;;0.15;;